Time;durP1;ratioP1;P1;durP2;ratioP2;P2;SDS_P1;SDS_P2;PMS_P1;PMS_P2;Temp;Humidity;BMP_temperature;BMP_pressure;BME280_temperature;BME280_humidity;BME280_pressure;Samples;Min_cycle;Max_cycle;Signal;HPM_P1;HPM_P2
2022/07/31 00:00:39;;;;;;;;;;;20.80;78.30;;;;;;4878104;29;19944;-96
2022/07/31 00:03:09;;;;;;;;;;;20.80;79.20;;;;;;4840545;29;19961;-96
2022/07/31 00:05:47;;;;;;;;;;;20.90;79.30;;;;;;4841667;29;19952;-96
2022/07/31 00:08:29;;;;;;;;;;;20.90;78.60;;;;;;4841579;29;19997;-96
2022/07/31 00:11:21;;;;;;;;;;;21.10;77.80;;;;;;4841810;29;20434;-96
2022/07/31 00:13:50;;;;;;;;;;;21.00;78.00;;;;;;4839213;29;19948;-96
2022/07/31 00:16:27;;;;;;;;;;;21.00;77.30;;;;;;4872257;29;20043;-96
2022/07/31 00:18:58;;;;;;;;;;;21.00;78.10;;;;;;4878512;29;19946;-96
2022/07/31 00:21:25;;;;;;;;;;;20.90;78.50;;;;;;4878466;29;19960;-96
2022/07/31 00:24:05;;;;;;;;;;;20.90;78.20;;;;;;4877979;29;20003;-96
2022/07/31 00:26:33;;;;;;;;;;;21.00;78.10;;;;;;4823236;29;20009;-96
2022/07/31 00:29:12;;;;;;;;;;;21.00;77.00;;;;;;4822809;29;19951;-95
2022/07/31 00:31:48;;;;;;;;;;;20.90;75.40;;;;;;4813201;29;19985;-95
2022/07/31 00:34:34;;;;;;;;;;;20.70;75.90;;;;;;4831330;29;20438;-96
2022/07/31 00:37:00;;;;;;;;;;;20.40;76.40;;;;;;4861878;29;20022;-95
2022/07/31 00:39:43;;;;;;;;;;;20.20;78.10;;;;;;4863222;29;19971;-96
2022/07/31 00:43:04;;;;;;;;;;;20.10;79.60;;;;;;4862928;29;19965;-96
2022/07/31 00:45:59;;;;;;;;;;;;;;;;;;;;;
2022/07/31 00:48:53;;;;;;;;;;;20.30;80.00;;;;;;4825160;29;19982;-96
2022/07/31 00:51:38;;;;;;;;;;;20.40;80.00;;;;;;4850177;29;19954;-96
2022/07/31 00:57:14;;;;;;;;;;;20.60;78.70;;;;;;4874532;29;20305;-96
2022/07/31 00:59:39;;;;;;;;;;;20.80;78.00;;;;;;4921206;29;19948;-96
2022/07/31 01:02:07;;;;;;;;;;;20.80;78.00;;;;;;4920258;29;20332;-96
2022/07/31 01:05:01;;;;;;;;;;;20.70;78.40;;;;;;4902989;29;19942;-95
2022/07/31 01:07:40;;;;;;;;;;;20.60;78.90;;;;;;4903634;29;19946;-96
2022/07/31 01:10:14;;;;;;;;;;;20.50;78.90;;;;;;4903135;29;19945;-95
2022/07/31 01:13:02;;;;;;;;;;;20.40;77.50;;;;;;4920658;29;19947;-95
2022/07/31 01:16:12;;;;;;;;;;;20.30;77.70;;;;;;4902836;29;19950;-96
2022/07/31 01:18:39;;;;;;;;;;;20.40;77.80;;;;;;4920367;29;20001;-96
2022/07/31 01:21:16;;;;;;;;;;;20.50;79.00;;;;;;4920302;29;20015;-96
2022/07/31 01:24:11;;;;;;;;;;;20.60;79.10;;;;;;4920264;29;19943;-95
2022/07/31 01:30:06;;;;;;;;;;;20.20;76.70;;;;;;4825255;29;19946;-95
2022/07/31 01:32:50;;;;;;;;;;;19.90;77.90;;;;;;4920334;29;19953;-96
2022/07/31 01:38:20;;;;;;;;;;;19.60;80.40;;;;;;4920136;29;20426;-95
2022/07/31 01:41:00;;;;;;;;;;;19.70;81.00;;;;;;4920171;29;19945;-96
2022/07/31 01:43:52;;;;;;;;;;;19.70;81.20;;;;;;4919245;29;19944;-96
2022/07/31 01:46:43;;;;;;;;;;;19.80;81.10;;;;;;4877827;29;19947;-96
2022/07/31 01:49:10;;;;;;;;;;;19.80;81.30;;;;;;4919313;29;19984;-96
2022/07/31 01:51:38;;;;;;;;;;;20.00;81.40;;;;;;4919778;29;19946;-96
2022/07/31 01:54:07;;;;;;;;;;;19.90;81.50;;;;;;4902589;29;20009;-95
2022/07/31 01:56:44;;;;;;;;;;;19.80;81.90;;;;;;4919380;29;19959;-95
2022/07/31 01:59:16;;;;;;;;;;;19.70;81.80;;;;;;4889041;29;20303;-96
2022/07/31 02:01:59;;;;;;;;;;;19.70;81.50;;;;;;4902308;29;19974;-95
2022/07/31 02:04:35;;;;;;;;;;;19.70;81.80;;;;;;4919822;29;19943;-96
2022/07/31 02:07:07;;;;;;;;;;;19.80;80.80;;;;;;4915279;29;19979;-96
2022/07/31 02:12:44;;;;;;;;;;;19.80;78.90;;;;;;4919657;29;19974;-96
2022/07/31 02:18:14;;;;;;;;;;;19.90;80.00;;;;;;4918839;29;19952;-96
2022/07/31 02:20:50;;;;;;;;;;;20.00;80.30;;;;;;4919136;29;20001;-95
2022/07/31 02:23:17;;;;;;;;;;;19.90;79.60;;;;;;4874720;29;19946;-96
2022/07/31 02:25:47;;;;;;;;;;;19.80;79.20;;;;;;4919037;29;20393;-96
2022/07/31 02:28:21;;;;;;;;;;;19.70;78.70;;;;;;4918721;29;19947;-96
2022/07/31 02:30:56;;;;;;;;;;;19.70;79.40;;;;;;4891815;29;20409;-96
2022/07/31 02:33:31;;;;;;;;;;;19.80;80.20;;;;;;4918940;29;19949;-96
2022/07/31 02:36:13;;;;;;;;;;;19.80;80.50;;;;;;4918483;29;20077;-95
2022/07/31 02:38:48;;;;;;;;;;;19.70;79.50;;;;;;4919097;29;20034;-96
2022/07/31 02:41:24;;;;;;;;;;;19.60;80.80;;;;;;4918437;29;19964;-96
2022/07/31 02:43:50;;;;;;;;;;;19.50;80.30;;;;;;4919021;29;19952;-95
2022/07/31 02:46:17;;;;;;;;;;;19.40;80.30;;;;;;4918725;29;20037;-96
2022/07/31 02:51:51;;;;;;;;;;;19.30;82.40;;;;;;4897554;29;20413;-95
2022/07/31 02:57:05;;;;;;;;;;;19.20;82.60;;;;;;4897372;29;20041;-95
2022/07/31 02:59:39;;;;;;;;;;;19.20;83.50;;;;;;4897638;29;19938;-96
2022/07/31 03:02:10;;;;;;;;;;;19.20;84.70;;;;;;4896015;29;19962;-95
2022/07/31 03:04:39;;;;;;;;;;;19.30;84.50;;;;;;4918705;29;20377;-96
2022/07/31 03:07:11;;;;;;;;;;;19.30;84.40;;;;;;4918054;29;20012;-96
2022/07/31 03:10:15;;;;;;;;;;;19.30;84.40;;;;;;4918406;29;20027;-96
2022/07/31 03:16:03;;;;;;;;;;;19.10;83.50;;;;;;4908864;29;19957;-95
2022/07/31 03:18:30;;;;;;;;;;;19.10;83.30;;;;;;4900616;29;19966;-95
2022/07/31 03:21:08;;;;;;;;;;;19.10;82.80;;;;;;4918341;29;19992;-95
2022/07/31 03:23:46;;;;;;;;;;;19.10;82.40;;;;;;4918065;29;19972;-96
2022/07/31 03:26:17;;;;;;;;;;;19.30;81.60;;;;;;4918243;29;19943;-95
2022/07/31 03:28:58;;;;;;;;;;;19.20;81.80;;;;;;4918274;29;19996;-95
2022/07/31 03:31:27;;;;;;;;;;;19.20;81.80;;;;;;4915166;29;20052;-96
2022/07/31 03:34:12;;;;;;;;;;;19.10;82.00;;;;;;4918429;29;20408;-96
2022/07/31 03:36:38;;;;;;;;;;;19.20;81.90;;;;;;4900586;29;20013;-95
2022/07/31 03:39:07;;;;;;;;;;;19.20;82.20;;;;;;4918353;29;19977;-95
2022/07/31 03:44:35;;;;;;;;;;;19.00;82.20;;;;;;4918866;29;19952;-95
2022/07/31 03:47:03;;;;;;;;;;;19.00;82.50;;;;;;4917649;29;19951;-96
2022/07/31 03:49:47;;;;;;;;;;;19.00;82.50;;;;;;4918656;29;19971;-96
2022/07/31 03:52:13;;;;;;;;;;;19.00;79.70;;;;;;4918385;29;20043;-95
2022/07/31 03:54:41;;;;;;;;;;;18.90;78.40;;;;;;4918561;29;20040;-96
2022/07/31 03:57:33;;;;;;;;;;;18.80;78.50;;;;;;4918312;29;20043;-96
2022/07/31 04:00:01;;;;;;;;;;;18.70;79.30;;;;;;4917705;29;19946;-96
2022/07/31 04:02:27;;;;;;;;;;;18.60;80.20;;;;;;4901522;29;20395;-95
2022/07/31 04:04:53;;;;;;;;;;;18.50;80.80;;;;;;4918369;29;19949;-95
2022/07/31 04:07:25;;;;;;;;;;;18.40;80.90;;;;;;4903305;29;19957;-95
2022/07/31 04:09:51;;;;;;;;;;;18.30;82.10;;;;;;4922308;29;19940;-95
2022/07/31 04:12:26;;;;;;;;;;;18.40;83.20;;;;;;4922131;29;19942;-96
2022/07/31 04:14:52;;;;;;;;;;;18.50;83.40;;;;;;4904628;29;20058;-96
2022/07/31 04:17:21;;;;;;;;;;;18.60;83.20;;;;;;4921954;29;20395;-96
2022/07/31 04:19:52;;;;;;;;;;;18.80;82.50;;;;;;4921531;29;19939;-95
2022/07/31 04:22:20;;;;;;;;;;;18.90;82.00;;;;;;4922003;29;20012;-95
2022/07/31 04:24:48;;;;;;;;;;;19.00;82.10;;;;;;4921339;29;19939;-96
2022/07/31 04:27:16;;;;;;;;;;;19.00;81.40;;;;;;4921496;29;19947;-95
2022/07/31 04:29:44;;;;;;;;;;;18.80;80.20;;;;;;4904400;29;19948;-96
2022/07/31 04:32:14;;;;;;;;;;;18.60;81.20;;;;;;4904107;29;19948;-95
2022/07/31 04:34:46;;;;;;;;;;;18.60;82.10;;;;;;4904269;29;19944;-96
2022/07/31 04:37:15;;;;;;;;;;;18.70;82.30;;;;;;4921826;29;19988;-96
2022/07/31 04:39:41;;;;;;;;;;;18.80;82.10;;;;;;4904477;29;19946;-95
2022/07/31 04:42:10;;;;;;;;;;;19.00;82.10;;;;;;4921749;29;19960;-95
2022/07/31 04:44:37;;;;;;;;;;;19.10;81.60;;;;;;4921542;29;19950;-96
2022/07/31 04:47:06;;;;;;;;;;;19.20;81.60;;;;;;4935550;23;19999;-96
2022/07/31 04:49:32;;;;;;;;;;;19.20;81.70;;;;;;4920788;29;19982;-95
2022/07/31 04:52:01;;;;;;;;;;;19.30;82.20;;;;;;4920974;29;19940;-96
2022/07/31 04:54:43;;;;;;;;;;;19.40;82.30;;;;;;4920988;29;19967;-96
2022/07/31 04:57:08;;;;;;;;;;;19.50;82.00;;;;;;4922099;29;19955;-95
2022/07/31 04:59:34;;;;;;;;;;;19.60;81.40;;;;;;4939946;29;19941;-96
2022/07/31 05:02:20;;;;;;;;;;;19.60;80.90;;;;;;4940031;29;20423;-96
2022/07/31 05:05:01;;;;;;;;;;;19.60;81.30;;;;;;4922987;29;19951;-96
2022/07/31 05:07:27;;;;;;;;;;;19.70;81.30;;;;;;4940555;29;20000;-95
2022/07/31 05:09:59;;;;;;;;;;;19.80;81.20;;;;;;4940331;29;20039;-96
2022/07/31 05:12:28;;;;;;;;;;;19.90;81.20;;;;;;4940534;29;20439;-96
2022/07/31 05:14:53;;;;;;;;;;;20.00;81.10;;;;;;4940156;29;19946;-96
2022/07/31 05:17:22;;;;;;;;;;;20.10;81.20;;;;;;4940115;29;19954;-96
2022/07/31 05:19:48;;;;;;;;;;;20.20;81.20;;;;;;4939236;29;19946;-96
2022/07/31 05:22:24;;;;;;;;;;;20.30;81.20;;;;;;4939993;29;19967;-96
2022/07/31 05:25:01;;;;;;;;;;;20.50;81.10;;;;;;4923208;29;19948;-96
2022/07/31 05:27:41;;;;;;;;;;;20.60;81.00;;;;;;4939992;29;20399;-96
2022/07/31 05:30:10;;;;;;;;;;;20.70;80.70;;;;;;4922207;29;19951;-96
2022/07/31 05:32:39;;;;;;;;;;;20.80;80.50;;;;;;4939866;29;19975;-96
2022/07/31 05:35:05;;;;;;;;;;;20.90;80.40;;;;;;4922328;29;20420;-96
2022/07/31 05:37:33;;;;;;;;;;;20.90;79.70;;;;;;4939456;29;19964;-95
2022/07/31 05:39:59;;;;;;;;;;;21.10;79.40;;;;;;4939188;29;20011;-96
2022/07/31 05:42:45;;;;;;;;;;;;;;;;;;;;;
2022/07/31 05:45:23;;;;;;;;;;;21.20;78.40;;;;;;4937224;29;19942;-96
2022/07/31 05:48:18;;;;;;;;;;;21.30;77.90;;;;;;4938870;29;19980;-96
2022/07/31 05:50:45;;;;;;;;;;;21.40;77.30;;;;;;4921310;29;20051;-95
2022/07/31 05:56:12;;;;;;;;;;;21.50;75.80;;;;;;4938609;29;20046;-95
2022/07/31 05:58:37;;;;;;;;;;;21.60;75.70;;;;;;4938599;29;19953;-96
2022/07/31 06:01:33;;;;;;;;;;;21.70;76.00;;;;;;4939002;29;19943;-96
2022/07/31 06:04:19;;;;;;;;;;;21.80;75.40;;;;;;4921139;29;20401;-96
2022/07/31 06:06:45;;;;;;;;;;;21.80;75.30;;;;;;4939270;29;19939;-96
2022/07/31 06:09:40;;;;;;;;;;;21.90;75.00;;;;;;4938827;29;19987;-96
2022/07/31 06:12:07;;;;;;;;;;;22.00;75.00;;;;;;4935407;29;20420;-96
2022/07/31 06:15:01;;;;;;;;;;;22.10;74.60;;;;;;4921583;29;20056;-96
2022/07/31 06:17:47;;;;;;;;;;;22.30;74.30;;;;;;4936968;29;19948;-96
2022/07/31 06:20:26;;;;;;;;;;;22.40;72.80;;;;;;4938882;29;19948;-95
2022/07/31 06:22:52;;;;;;;;;;;22.70;71.40;;;;;;4920936;29;19968;-96
2022/07/31 06:25:28;;;;;;;;;;;22.80;71.30;;;;;;4938355;29;19941;-96
2022/07/31 06:27:58;;;;;;;;;;;22.90;70.70;;;;;;4938044;29;19945;-96
2022/07/31 06:30:24;;;;;;;;;;;23.00;70.90;;;;;;4937887;29;19946;-95
2022/07/31 06:32:49;;;;;;;;;;;23.10;70.90;;;;;;4937829;29;20056;-96
2022/07/31 06:35:15;;;;;;;;;;;23.20;70.60;;;;;;4937923;29;19949;-96
2022/07/31 06:37:48;;;;;;;;;;;23.20;70.30;;;;;;4937006;29;20316;-96
2022/07/31 06:40:14;;;;;;;;;;;23.20;70.50;;;;;;4937905;29;19990;-96
2022/07/31 06:43:26;;;;;;;;;;;23.30;70.40;;;;;;4937709;29;20008;-96
2022/07/31 06:46:00;;;;;;;;;;;23.30;70.20;;;;;;4936226;29;19958;-96
2022/07/31 06:48:27;;;;;;;;;;;23.40;70.20;;;;;;4937929;29;20112;-95
2022/07/31 06:50:54;;;;;;;;;;;23.50;69.10;;;;;;4937785;29;20124;-96
2022/07/31 06:53:29;;;;;;;;;;;23.60;68.40;;;;;;4937990;29;20382;-96
2022/07/31 06:55:55;;;;;;;;;;;23.70;68.40;;;;;;4937562;29;20020;-95
2022/07/31 06:58:24;;;;;;;;;;;23.70;67.90;;;;;;4937335;29;20475;-96
2022/07/31 07:00:55;;;;;;;;;;;23.80;67.30;;;;;;4937459;29;20029;-96
2022/07/31 07:03:43;;;;;;;;;;;23.80;66.80;;;;;;4937297;29;19939;-96
2022/07/31 07:06:10;;;;;;;;;;;23.90;65.10;;;;;;4937744;29;19947;-96
2022/07/31 07:08:47;;;;;;;;;;;24.00;65.40;;;;;;4937399;29;19945;-96
2022/07/31 07:11:13;;;;;;;;;;;24.00;65.00;;;;;;4937360;29;19994;-96
2022/07/31 07:13:39;;;;;;;;;;;24.10;63.90;;;;;;4937374;29;19944;-96
2022/07/31 07:16:14;;;;;;;;;;;24.20;63.30;;;;;;4919882;29;19950;-96
2022/07/31 07:21:49;;;;;;;;;;;24.30;62.80;;;;;;4936465;29;20092;-96
2022/07/31 07:24:46;;;;;;;;;;;24.50;62.00;;;;;;4937137;29;19949;-96
2022/07/31 07:27:49;;;;;;;;;;;24.60;61.80;;;;;;4935022;29;19980;-96
2022/07/31 07:30:35;;;;;;;;;;;24.70;62.80;;;;;;4937377;29;20393;-96
2022/07/31 07:33:01;;;;;;;;;;;24.70;62.60;;;;;;4919887;29;20040;-96
2022/07/31 07:35:27;;;;;;;;;;;24.80;62.20;;;;;;4937012;29;20034;-96
2022/07/31 07:38:00;;;;;;;;;;;24.90;61.50;;;;;;4937110;29;19946;-96
2022/07/31 07:40:35;;;;;;;;;;;25.00;59.40;;;;;;4937077;29;19985;-95
2022/07/31 07:43:00;;;;;;;;;;;25.20;57.60;;;;;;4937387;29;19958;-96
2022/07/31 07:45:26;;;;;;;;;;;25.40;57.20;;;;;;4937509;29;20385;-96
2022/07/31 07:47:55;;;;;;;;;;;25.60;56.50;;;;;;4937110;29;19983;-96
2022/07/31 07:50:24;;;;;;;;;;;25.70;57.70;;;;;;4937673;29;19981;-96
2022/07/31 07:52:52;;;;;;;;;;;25.80;54.90;;;;;;4937596;29;19943;-95
2022/07/31 07:55:22;;;;;;;;;;;25.80;55.00;;;;;;4937335;29;19993;-96
2022/07/31 07:57:53;;;;;;;;;;;25.90;55.20;;;;;;4936500;29;19962;-96
2022/07/31 08:00:22;;;;;;;;;;;25.90;52.50;;;;;;4936993;29;20317;-96
2022/07/31 08:02:48;;;;;;;;;;;26.00;52.30;;;;;;4919603;29;20381;-95
2022/07/31 08:05:15;;;;;;;;;;;26.10;54.10;;;;;;4920383;29;19947;-96
2022/07/31 08:07:41;;;;;;;;;;;26.10;52.20;;;;;;4919648;29;19944;-96
2022/07/31 08:10:17;;;;;;;;;;;26.20;53.70;;;;;;4936880;29;19984;-96
2022/07/31 08:12:53;;;;;;;;;;;26.20;53.80;;;;;;4936881;29;19940;-96
2022/07/31 08:15:19;;;;;;;;;;;26.30;52.70;;;;;;4920306;29;19985;-96
2022/07/31 08:17:48;;;;;;;;;;;26.40;52.20;;;;;;4936371;29;19976;-96
2022/07/31 08:20:14;;;;;;;;;;;26.40;52.00;;;;;;4920299;29;20001;-96
2022/07/31 08:22:39;;;;;;;;;;;26.50;51.30;;;;;;4919394;29;20011;-96
2022/07/31 08:25:06;;;;;;;;;;;26.60;51.30;;;;;;4936904;29;19940;-96
2022/07/31 08:27:34;;;;;;;;;;;26.70;51.90;;;;;;4936585;29;19946;-96
2022/07/31 08:30:03;;;;;;;;;;;26.80;52.20;;;;;;4919319;29;19949;-96
2022/07/31 08:32:28;;;;;;;;;;;26.80;51.70;;;;;;4936915;29;19946;-96
2022/07/31 08:34:54;;;;;;;;;;;26.90;50.90;;;;;;4936462;29;19951;-96
2022/07/31 08:37:20;;;;;;;;;;;26.90;51.50;;;;;;4936715;29;20405;-96
2022/07/31 08:39:49;;;;;;;;;;;27.10;52.40;;;;;;4936510;29;19937;-96
2022/07/31 08:42:19;;;;;;;;;;;27.20;51.30;;;;;;4936448;29;19972;-96
2022/07/31 08:44:44;;;;;;;;;;;27.20;51.80;;;;;;4919421;29;20091;-96
2022/07/31 08:47:14;;;;;;;;;;;27.30;51.10;;;;;;4936277;29;19995;-96
2022/07/31 08:49:47;;;;;;;;;;;27.40;51.20;;;;;;4936694;29;20057;-96
2022/07/31 08:52:21;;;;;;;;;;;27.50;50.80;;;;;;4919720;29;19955;-96
2022/07/31 08:54:49;;;;;;;;;;;27.60;50.40;;;;;;4939845;29;19944;-96
2022/07/31 08:57:15;;;;;;;;;;;27.60;50.10;;;;;;4939356;29;19946;-96
2022/07/31 08:59:40;;;;;;;;;;;27.80;49.40;;;;;;4939785;29;19953;-96
2022/07/31 09:02:07;;;;;;;;;;;27.90;49.50;;;;;;4939677;29;19963;-96
2022/07/31 09:04:33;;;;;;;;;;;28.00;47.30;;;;;;4939752;29;19945;-96
2022/07/31 09:07:00;;;;;;;;;;;28.20;45.30;;;;;;4939404;29;19940;-96
2022/07/31 09:09:26;;;;;;;;;;;28.30;45.70;;;;;;4939655;29;20016;-96
2022/07/31 09:11:55;;;;;;;;;;;28.30;45.60;;;;;;4940241;29;20001;-96
2022/07/31 09:14:43;;;;;;;;;;;28.40;45.80;;;;;;4923354;29;19956;-96
2022/07/31 09:17:14;;;;;;;;;;;28.50;46.10;;;;;;4922247;29;19943;-96
2022/07/31 09:19:40;;;;;;;;;;;28.80;45.60;;;;;;4939234;29;19946;-96
2022/07/31 09:22:06;;;;;;;;;;;28.80;45.70;;;;;;4939231;29;19958;-96
2022/07/31 09:24:32;;;;;;;;;;;28.70;46.00;;;;;;4940084;29;19945;-96
2022/07/31 09:27:04;;;;;;;;;;;28.80;47.40;;;;;;4939134;29;20332;-96
2022/07/31 09:29:36;;;;;;;;;;;28.80;46.40;;;;;;4939276;29;19947;-96
2022/07/31 09:32:15;;;;;;;;;;;28.90;44.00;;;;;;4938946;29;19952;-96
2022/07/31 09:34:41;;;;;;;;;;;28.90;43.50;;;;;;4939144;29;19943;-96
2022/07/31 09:37:11;;;;;;;;;;;29.10;46.90;;;;;;4939155;29;19960;-96
2022/07/31 09:39:37;;;;;;;;;;;29.20;46.60;;;;;;4939074;29;19945;-95
2022/07/31 09:42:03;;;;;;;;;;;29.30;46.70;;;;;;4938735;29;19996;-96
2022/07/31 09:44:39;;;;;;;;;;;29.40;45.50;;;;;;4939212;29;19942;-96
2022/07/31 09:47:05;;;;;;;;;;;29.40;46.20;;;;;;4938547;29;19949;-96
2022/07/31 09:49:31;;;;;;;;;;;29.50;45.40;;;;;;4939382;29;19949;-96
2022/07/31 09:51:58;;;;;;;;;;;29.60;42.70;;;;;;4938685;29;19941;-96
2022/07/31 09:54:27;;;;;;;;;;;29.80;39.90;;;;;;4939816;29;20399;-96
2022/07/31 09:56:53;;;;;;;;;;;29.70;42.80;;;;;;4938861;29;20444;-96
2022/07/31 09:59:19;;;;;;;;;;;29.80;43.10;;;;;;4921562;29;19954;-96
2022/07/31 10:01:47;;;;;;;;;;;29.70;43.40;;;;;;4938663;29;19971;-96
2022/07/31 10:04:15;;;;;;;;;;;29.80;44.20;;;;;;4938017;29;19947;-96
2022/07/31 10:06:41;;;;;;;;;;;29.80;44.20;;;;;;4938410;29;20459;-96
2022/07/31 10:09:07;;;;;;;;;;;30.00;42.10;;;;;;4938903;29;19945;-96
2022/07/31 10:11:33;;;;;;;;;;;30.00;43.20;;;;;;4938424;29;19980;-96
2022/07/31 10:14:04;;;;;;;;;;;30.10;42.30;;;;;;4939874;29;19949;-96
2022/07/31 10:16:33;;;;;;;;;;;30.10;41.80;;;;;;4921596;29;19945;-96
2022/07/31 10:18:59;;;;;;;;;;;30.20;42.70;;;;;;4939292;29;19999;-96
2022/07/31 10:21:28;;;;;;;;;;;30.20;44.00;;;;;;4938962;29;20053;-96
2022/07/31 10:23:54;;;;;;;;;;;30.30;41.70;;;;;;4938937;29;20417;-96
2022/07/31 10:26:20;;;;;;;;;;;30.30;41.50;;;;;;4922548;29;19950;-96
2022/07/31 10:28:45;;;;;;;;;;;30.30;39.20;;;;;;4939096;29;20431;-96
2022/07/31 10:31:11;;;;;;;;;;;30.50;37.50;;;;;;4939164;29;20307;-96
2022/07/31 10:33:37;;;;;;;;;;;30.60;36.70;;;;;;4922038;29;20003;-96
2022/07/31 10:36:02;;;;;;;;;;;30.70;38.50;;;;;;4923171;29;20053;-96
2022/07/31 10:38:31;;;;;;;;;;;30.60;38.90;;;;;;4942433;29;19951;-96
2022/07/31 10:41:16;;;;;;;;;;;30.80;38.30;;;;;;4939220;29;19938;-96
2022/07/31 10:43:53;;;;;;;;;;;30.90;39.00;;;;;;4939512;29;19938;-96
2022/07/31 10:46:26;;;;;;;;;;;31.00;37.70;;;;;;4938960;29;20002;-96
2022/07/31 10:48:52;;;;;;;;;;;31.20;37.90;;;;;;4939136;29;19992;-96
2022/07/31 10:51:17;;;;;;;;;;;31.30;36.30;;;;;;4921309;29;20038;-96
2022/07/31 10:54:04;;;;;;;;;;;31.50;37.10;;;;;;4939135;29;20365;-96
2022/07/31 10:56:42;;;;;;;;;;;31.60;37.50;;;;;;4939271;29;19949;-96
2022/07/31 10:59:07;;;;;;;;;;;31.70;38.30;;;;;;4923060;29;19998;-96
2022/07/31 11:01:43;;;;;;;;;;;31.80;37.80;;;;;;4939240;29;20043;-96
2022/07/31 11:04:09;;;;;;;;;;;31.90;38.10;;;;;;4943913;29;19938;-96
2022/07/31 11:06:39;;;;;;;;;;;31.70;38.20;;;;;;4941785;29;20454;-96
2022/07/31 11:09:04;;;;;;;;;;;31.70;38.10;;;;;;4938874;29;19949;-96
2022/07/31 11:11:31;;;;;;;;;;;31.80;38.70;;;;;;4939483;29;19990;-96
2022/07/31 11:13:58;;;;;;;;;;;32.10;38.60;;;;;;4939373;29;20347;-96
2022/07/31 11:16:24;;;;;;;;;;;32.00;36.00;;;;;;4921990;29;19955;-96
2022/07/31 11:19:05;;;;;;;;;;;32.20;36.10;;;;;;4941636;29;20279;-96
2022/07/31 11:21:38;;;;;;;;;;;32.20;33.90;;;;;;4941329;29;19967;-96
2022/07/31 11:24:17;;;;;;;;;;;32.20;35.60;;;;;;4924099;29;19973;-96
2022/07/31 11:26:52;;;;;;;;;;;32.30;35.60;;;;;;4939805;29;19939;-96
2022/07/31 11:29:48;;;;;;;;;;;32.40;35.00;;;;;;4920765;29;20324;-96
2022/07/31 11:32:14;;;;;;;;;;;32.50;35.10;;;;;;4937838;29;19957;-96
2022/07/31 11:34:42;;;;;;;;;;;32.70;33.40;;;;;;4939306;29;20040;-96
2022/07/31 11:37:12;;;;;;;;;;;32.90;33.30;;;;;;4938809;29;19955;-96
2022/07/31 11:39:39;;;;;;;;;;;32.80;33.50;;;;;;4939704;29;20440;-96
2022/07/31 11:42:05;;;;;;;;;;;33.20;32.00;;;;;;4922916;29;19970;-96
2022/07/31 11:44:30;;;;;;;;;;;33.10;29.80;;;;;;4941615;29;20424;-96
2022/07/31 11:46:56;;;;;;;;;;;33.00;27.80;;;;;;4921436;29;20035;-96
2022/07/31 11:49:22;;;;;;;;;;;33.00;32.10;;;;;;4922536;29;20309;-96
2022/07/31 11:51:48;;;;;;;;;;;33.10;33.70;;;;;;4922280;29;19948;-96
2022/07/31 11:54:24;;;;;;;;;;;33.20;33.30;;;;;;4939811;29;19972;-96
2022/07/31 11:56:56;;;;;;;;;;;33.40;32.40;;;;;;4922760;29;20050;-96
2022/07/31 11:59:28;;;;;;;;;;;33.50;31.10;;;;;;4941689;29;20318;-96
2022/07/31 12:01:53;;;;;;;;;;;33.60;31.90;;;;;;4943629;29;20474;-96
2022/07/31 12:04:19;;;;;;;;;;;33.70;31.20;;;;;;4944101;29;19968;-96
2022/07/31 12:06:45;;;;;;;;;;;34.00;30.70;;;;;;4927944;29;19964;-96
2022/07/31 12:09:10;;;;;;;;;;;33.90;30.70;;;;;;4947209;29;19947;-96
2022/07/31 12:11:36;;;;;;;;;;;33.70;31.10;;;;;;4943885;29;19948;-96
2022/07/31 12:14:02;;;;;;;;;;;33.90;31.70;;;;;;4929632;29;19949;-96
2022/07/31 12:16:37;;;;;;;;;;;34.20;30.80;;;;;;4928546;29;19983;-96
2022/07/31 12:19:03;;;;;;;;;;;34.50;30.50;;;;;;4944675;29;19954;-96
2022/07/31 12:21:33;;;;;;;;;;;34.40;28.40;;;;;;4942019;29;19965;-96
2022/07/31 12:23:59;;;;;;;;;;;34.70;29.00;;;;;;4948040;29;20006;-96
2022/07/31 12:26:26;;;;;;;;;;;34.60;28.90;;;;;;4927924;29;20398;-96
2022/07/31 12:28:59;;;;;;;;;;;34.50;28.60;;;;;;4943942;29;19942;-96
2022/07/31 12:31:25;;;;;;;;;;;34.80;30.70;;;;;;4934348;29;19958;-96
2022/07/31 12:33:51;;;;;;;;;;;34.90;30.10;;;;;;4935056;29;19950;-96
2022/07/31 12:36:17;;;;;;;;;;;34.70;30.00;;;;;;4950521;29;20340;-96
2022/07/31 12:38:43;;;;;;;;;;;34.70;30.20;;;;;;4948453;29;19951;-96
2022/07/31 12:41:09;;;;;;;;;;;34.90;29.40;;;;;;4950435;29;19935;-96
2022/07/31 12:43:35;;;;;;;;;;;35.20;28.60;;;;;;4936858;29;19958;-96
2022/07/31 12:46:04;;;;;;;;;;;35.00;28.40;;;;;;4954469;29;19938;-96
2022/07/31 12:48:32;;;;;;;;;;;34.80;28.80;;;;;;5002535;23;19981;-96
2022/07/31 12:50:59;;;;;;;;;;;35.00;29.30;;;;;;5008687;28;19947;-96
2022/07/31 12:53:26;;;;;;;;;;;35.20;27.20;;;;;;4991054;28;19979;-96
2022/07/31 12:55:52;;;;;;;;;;;35.60;29.10;;;;;;5010876;28;19946;-96
2022/07/31 12:58:17;;;;;;;;;;;35.50;29.80;;;;;;4994634;28;19945;-96
2022/07/31 13:00:43;;;;;;;;;;;35.20;28.90;;;;;;4995299;28;19945;-96
2022/07/31 13:03:12;;;;;;;;;;;35.70;29.10;;;;;;5010209;28;19946;-96
2022/07/31 13:05:38;;;;;;;;;;;36.20;28.10;;;;;;5005284;28;20030;-96
2022/07/31 13:08:03;;;;;;;;;;;36.60;28.70;;;;;;5003109;28;19985;-96
2022/07/31 13:10:29;;;;;;;;;;;36.90;27.40;;;;;;5007597;28;19939;-96
2022/07/31 13:12:54;;;;;;;;;;;36.70;27.10;;;;;;5001390;28;19940;-96
2022/07/31 13:15:28;;;;;;;;;;;36.90;27.60;;;;;;5000048;28;20313;-96
2022/07/31 13:17:57;;;;;;;;;;;37.10;25.80;;;;;;5003372;28;19978;-96
2022/07/31 13:20:23;;;;;;;;;;;37.20;26.10;;;;;;5005053;28;19944;-96
2022/07/31 13:22:49;;;;;;;;;;;37.60;25.80;;;;;;5006908;28;20056;-96
2022/07/31 13:25:14;;;;;;;;;;;37.60;25.80;;;;;;5002204;28;19945;-96
2022/07/31 13:27:40;;;;;;;;;;;37.60;25.70;;;;;;5000802;28;19939;-96
2022/07/31 13:30:06;;;;;;;;;;;38.40;25.50;;;;;;4983540;28;20000;-96
2022/07/31 13:32:32;;;;;;;;;;;39.00;23.90;;;;;;5006659;28;19939;-96
2022/07/31 13:34:58;;;;;;;;;;;38.40;24.00;;;;;;4991786;28;19947;-96
2022/07/31 13:37:23;;;;;;;;;;;38.00;24.30;;;;;;4968561;28;19961;-96
2022/07/31 13:39:49;;;;;;;;;;;38.70;23.90;;;;;;4985587;28;19944;-96
2022/07/31 13:42:15;;;;;;;;;;;38.70;23.90;;;;;;4984666;28;20371;-96
2022/07/31 13:44:40;;;;;;;;;;;38.60;23.70;;;;;;4985715;28;19944;-96
2022/07/31 13:47:06;;;;;;;;;;;38.70;23.50;;;;;;4986192;28;19971;-96
2022/07/31 13:49:32;;;;;;;;;;;39.10;23.00;;;;;;4969640;28;20052;-96
2022/07/31 13:51:58;;;;;;;;;;;39.10;23.20;;;;;;4968354;28;19949;-96
2022/07/31 13:54:25;;;;;;;;;;;39.10;24.20;;;;;;4987225;28;19939;-96
2022/07/31 13:56:51;;;;;;;;;;;38.80;23.50;;;;;;4969785;28;19942;-96
2022/07/31 13:59:17;;;;;;;;;;;38.70;23.50;;;;;;4989220;28;19969;-96
2022/07/31 14:01:42;;;;;;;;;;;38.10;24.10;;;;;;4986070;28;19999;-96
2022/07/31 14:04:08;;;;;;;;;;;38.50;23.90;;;;;;4969302;28;19952;-96
2022/07/31 14:06:34;;;;;;;;;;;39.00;22.70;;;;;;4967960;28;19941;-96
2022/07/31 14:08:59;;;;;;;;;;;38.60;23.40;;;;;;4982264;28;20280;-96
2022/07/31 14:11:25;;;;;;;;;;;37.80;24.10;;;;;;4980207;28;19987;-96
2022/07/31 14:13:50;;;;;;;;;;;37.90;24.10;;;;;;4963821;28;20371;-96
2022/07/31 14:16:16;;;;;;;;;;;37.90;23.30;;;;;;4977656;28;19951;-96
2022/07/31 14:18:42;;;;;;;;;;;38.20;24.30;;;;;;4978136;28;20468;-96
2022/07/31 14:21:07;;;;;;;;;;;38.40;23.50;;;;;;4983072;28;19945;-96
2022/07/31 14:23:33;;;;;;;;;;;38.30;22.70;;;;;;4965854;28;19942;-96
2022/07/31 14:25:59;;;;;;;;;;;38.30;23.20;;;;;;4983999;28;19952;-96
2022/07/31 14:28:26;;;;;;;;;;;38.70;23.00;;;;;;4982612;28;19951;-96
2022/07/31 14:30:52;;;;;;;;;;;38.90;22.10;;;;;;4961112;28;20000;-96
2022/07/31 14:33:17;;;;;;;;;;;39.10;22.40;;;;;;4960760;28;19942;-96
2022/07/31 14:35:43;;;;;;;;;;;39.80;22.20;;;;;;4978136;28;19955;-96
2022/07/31 14:38:08;;;;;;;;;;;40.20;20.50;;;;;;4980066;28;20449;-96
2022/07/31 14:40:34;;;;;;;;;;;40.10;20.50;;;;;;4960106;28;19969;-96
2022/07/31 14:42:59;;;;;;;;;;;39.70;20.90;;;;;;4977253;28;19968;-96
2022/07/31 14:45:25;;;;;;;;;;;40.40;20.40;;;;;;4980280;28;20012;-96
2022/07/31 14:47:51;;;;;;;;;;;39.90;20.50;;;;;;4982744;28;19981;-96
2022/07/31 14:50:17;;;;;;;;;;;39.00;21.60;;;;;;4960919;28;19950;-96
2022/07/31 14:52:42;;;;;;;;;;;39.10;21.10;;;;;;4977330;28;20282;-96
2022/07/31 14:55:08;;;;;;;;;;;39.50;20.90;;;;;;4977245;28;19942;-96
2022/07/31 14:57:34;;;;;;;;;;;40.20;20.50;;;;;;4979849;28;19938;-96
2022/07/31 14:59:59;;;;;;;;;;;40.20;20.10;;;;;;4978777;28;20403;-96
2022/07/31 15:02:25;;;;;;;;;;;39.50;21.10;;;;;;4976922;28;19965;-96
2022/07/31 15:04:50;;;;;;;;;;;39.20;22.20;;;;;;4979275;28;19964;-96
2022/07/31 15:07:16;;;;;;;;;;;39.30;21.60;;;;;;4960130;28;19974;-96
2022/07/31 15:09:42;;;;;;;;;;;39.20;21.50;;;;;;4977292;28;19976;-96
2022/07/31 15:12:08;;;;;;;;;;;39.10;22.20;;;;;;4977255;28;20005;-96
2022/07/31 15:14:34;;;;;;;;;;;38.70;22.20;;;;;;4978806;28;19938;-96